createdAt,value
2023-05-21T00:02:21.441Z,10.80
2023-05-21T00:04:48.149Z,10.80
2023-05-21T00:07:15.527Z,10.80
2023-05-21T00:09:42.196Z,10.80
2023-05-21T00:12:08.874Z,10.70
2023-05-21T00:14:35.603Z,10.70
2023-05-21T00:17:02.262Z,10.70
2023-05-21T00:19:28.965Z,10.60
2023-05-21T00:21:56.056Z,10.60
2023-05-21T00:24:22.813Z,10.50
2023-05-21T00:26:49.477Z,10.50
2023-05-21T00:29:16.112Z,10.50
2023-05-21T00:31:42.790Z,10.50
2023-05-21T00:34:09.578Z,10.40
2023-05-21T00:36:36.205Z,10.40
2023-05-21T00:39:04.327Z,10.40
2023-05-21T00:41:31.070Z,10.40
2023-05-21T00:44:00.321Z,10.30
2023-05-21T00:46:28.576Z,10.30
2023-05-21T00:48:55.429Z,10.30
2023-05-21T00:51:22.164Z,10.30
2023-05-21T00:53:48.924Z,10.30
2023-05-21T00:56:15.742Z,10.30
2023-05-21T00:58:42.439Z,10.20
2023-05-21T01:01:14.011Z,10.20
2023-05-21T01:03:41.079Z,10.20
2023-05-21T01:06:07.815Z,10.20
2023-05-21T01:08:34.922Z,10.20
2023-05-21T01:11:01.578Z,10.20
2023-05-21T01:13:28.201Z,10.20
2023-05-21T01:15:54.885Z,10.20
2023-05-21T01:18:23.537Z,10.20
2023-05-21T01:20:50.239Z,10.10
2023-05-21T01:23:17.163Z,10.00
2023-05-21T01:25:43.853Z,9.90
2023-05-21T01:28:10.720Z,9.90
2023-05-21T01:30:37.444Z,9.80
2023-05-21T01:33:04.241Z,9.80
2023-05-21T01:35:31.778Z,9.70
2023-05-21T01:38:01.186Z,9.60
2023-05-21T01:40:27.796Z,9.60
2023-05-21T01:42:54.552Z,9.60
2023-05-21T01:45:24.227Z,9.60
2023-05-21T01:47:50.945Z,9.60
2023-05-21T01:50:17.620Z,9.60
2023-05-21T01:52:44.371Z,9.50
2023-05-21T01:55:10.998Z,9.50
2023-05-21T01:57:37.855Z,9.50
2023-05-21T02:00:05.212Z,9.40
2023-05-21T02:02:42.077Z,9.40
2023-05-21T02:05:08.795Z,9.40
2023-05-21T02:07:35.449Z,9.30
2023-05-21T02:10:02.105Z,9.30
2023-05-21T02:12:29.526Z,9.20
2023-05-21T02:14:56.397Z,9.10
2023-05-21T02:17:24.316Z,9.20
2023-05-21T02:19:51.011Z,9.10
2023-05-21T02:22:17.706Z,9.10
2023-05-21T02:24:44.496Z,9.10
2023-05-21T02:27:13.792Z,9.10
2023-05-21T02:29:40.840Z,9.00
2023-05-21T02:32:07.474Z,9.00
2023-05-21T02:34:35.018Z,8.90
2023-05-21T02:37:01.755Z,8.90
2023-05-21T02:39:28.458Z,8.90
2023-05-21T02:41:55.453Z,8.80
2023-05-21T02:44:24.024Z,8.80
2023-05-21T02:46:50.794Z,8.70
2023-05-21T02:49:18.370Z,8.70
2023-05-21T02:51:47.057Z,8.70
2023-05-21T02:54:13.809Z,8.70
2023-05-21T02:56:40.465Z,8.60
2023-05-21T02:59:07.067Z,8.70
2023-05-21T03:01:34.364Z,8.60
2023-05-21T03:04:01.104Z,8.60
2023-05-21T03:06:27.740Z,8.60
2023-05-21T03:08:54.393Z,8.60
2023-05-21T03:11:22.493Z,8.60
2023-05-21T03:13:49.291Z,8.50
2023-05-21T03:16:16.084Z,8.50
2023-05-21T03:18:44.128Z,8.50
2023-05-21T03:21:13.239Z,8.50
2023-05-21T03:23:41.805Z,8.50
2023-05-21T03:26:08.457Z,8.50
2023-05-21T03:28:35.205Z,8.50
2023-05-21T03:31:02.135Z,8.50
2023-05-21T03:33:51.290Z,8.50
2023-05-21T03:36:27.591Z,8.50
2023-05-21T03:38:56.052Z,8.60
2023-05-21T03:41:23.061Z,8.50
2023-05-21T03:43:54.875Z,8.50
2023-05-21T03:46:24.640Z,8.50
2023-05-21T03:49:10.225Z,8.50
2023-05-21T03:51:39.578Z,8.50
2023-05-21T03:54:07.636Z,8.50
2023-05-21T03:56:37.549Z,8.50
2023-05-21T03:59:04.288Z,8.60
2023-05-21T04:01:33.064Z,8.50
2023-05-21T04:04:00.221Z,8.50
2023-05-21T04:06:28.491Z,8.50
2023-05-21T04:08:55.202Z,8.60
2023-05-21T04:11:22.511Z,8.60
2023-05-21T04:13:49.166Z,8.60
2023-05-21T04:16:19.260Z,8.60
2023-05-21T04:18:46.808Z,8.60
2023-05-21T04:21:15.292Z,8.60
2023-05-21T04:23:42.172Z,8.60
2023-05-21T04:26:18.187Z,8.60
2023-05-21T04:28:46.053Z,8.60
2023-05-21T04:31:13.775Z,8.70
2023-05-21T04:33:42.170Z,8.70
2023-05-21T04:36:12.134Z,8.70
2023-05-21T04:38:41.843Z,8.60
2023-05-21T04:41:10.793Z,8.60
2023-05-21T04:43:38.491Z,8.60
2023-05-21T04:46:06.009Z,8.60
2023-05-21T04:48:33.808Z,8.60
2023-05-21T04:51:00.410Z,8.70
2023-05-21T04:53:27.570Z,8.80
2023-05-21T04:55:54.397Z,8.90
2023-05-21T04:58:21.191Z,9.00
2023-05-21T05:00:50.837Z,9.10
2023-05-21T05:03:17.728Z,9.10
2023-05-21T05:05:44.401Z,9.20
2023-05-21T05:08:13.248Z,9.40
2023-05-21T05:10:41.359Z,9.50
2023-05-21T05:13:07.993Z,9.60
2023-05-21T05:15:34.835Z,9.60
2023-05-21T05:18:01.892Z,9.70
2023-05-21T05:20:28.907Z,9.80
2023-05-21T05:22:55.812Z,9.90
2023-05-21T05:25:22.477Z,10.10
2023-05-21T05:27:49.192Z,10.20
2023-05-21T05:30:15.850Z,10.30
2023-05-21T05:32:42.642Z,10.30
2023-05-21T05:35:09.343Z,10.50
2023-05-21T05:37:36.223Z,10.60
2023-05-21T05:40:02.920Z,10.70
2023-05-21T05:42:29.833Z,10.80
2023-05-21T05:44:58.653Z,10.90
2023-05-21T05:47:25.649Z,11.00
2023-05-21T05:49:52.339Z,11.10
2023-05-21T05:52:19.500Z,11.20
2023-05-21T05:54:46.147Z,11.30
2023-05-21T05:57:12.861Z,11.50
2023-05-21T05:59:39.576Z,11.30
2023-05-21T06:02:06.341Z,11.40
2023-05-21T06:04:33.078Z,11.50
2023-05-21T06:07:03.051Z,11.70
2023-05-21T06:09:29.732Z,11.70
2023-05-21T06:11:56.407Z,11.80
2023-05-21T06:14:23.091Z,11.80
2023-05-21T06:16:50.944Z,11.80
2023-05-21T06:19:18.061Z,12.10
2023-05-21T06:21:44.702Z,12.10
2023-05-21T06:24:12.220Z,12.10
2023-05-21T06:26:38.980Z,12.30
2023-05-21T06:29:05.690Z,12.40
2023-05-21T06:31:33.182Z,12.40
2023-05-21T06:34:00.575Z,12.50
2023-05-21T06:36:30.697Z,12.60
2023-05-21T06:38:57.669Z,12.80
2023-05-21T06:41:24.708Z,13.00
2023-05-21T06:43:55.872Z,13.20
2023-05-21T06:46:52.637Z,13.20
2023-05-21T06:49:19.648Z,13.20
2023-05-21T06:51:46.296Z,13.30
2023-05-21T06:54:13.482Z,13.40
2023-05-21T06:56:41.198Z,13.50
2023-05-21T06:59:08.538Z,13.50
2023-05-21T07:01:35.521Z,13.50
2023-05-21T07:04:02.209Z,13.70
2023-05-21T07:06:32.081Z,13.70
2023-05-21T07:08:58.863Z,13.80
2023-05-21T07:11:28.789Z,14.00
2023-05-21T07:13:56.733Z,14.20
2023-05-21T07:16:24.725Z,14.30
2023-05-21T07:18:51.780Z,14.50
2023-05-21T07:21:18.515Z,14.60
2023-05-21T07:23:47.933Z,14.80
2023-05-21T07:26:14.818Z,14.90
2023-05-21T07:28:41.669Z,15.00
2023-05-21T07:31:08.513Z,15.10
2023-05-21T07:33:41.634Z,15.20
2023-05-21T07:36:12.917Z,15.40
2023-05-21T07:38:40.547Z,15.50
2023-05-21T07:41:08.733Z,15.50
2023-05-21T07:43:35.459Z,15.50
2023-05-21T07:46:02.477Z,15.60
2023-05-21T07:48:29.877Z,15.80
2023-05-21T07:51:00.054Z,16.00
2023-05-21T07:53:27.424Z,16.10
2023-05-21T07:55:58.414Z,16.10
2023-05-21T07:58:28.208Z,16.30
2023-05-21T08:00:54.918Z,16.50
2023-05-21T08:03:21.892Z,16.20
2023-05-21T08:05:50.906Z,16.50
2023-05-21T08:08:17.905Z,16.80
2023-05-21T08:10:48.340Z,16.80
2023-05-21T08:13:15.504Z,16.70
2023-05-21T08:15:42.463Z,16.60
2023-05-21T08:18:09.909Z,16.80
2023-05-21T08:20:36.998Z,17.00
2023-05-21T08:23:04.257Z,17.10
2023-05-21T08:25:38.963Z,17.20
2023-05-21T08:28:05.921Z,17.40
2023-05-21T08:30:32.625Z,17.70
2023-05-21T08:32:59.419Z,17.80
2023-05-21T08:35:27.589Z,17.90
2023-05-21T08:38:03.553Z,18.10
2023-05-21T08:40:50.493Z,18.20
2023-05-21T08:43:18.252Z,18.10
2023-05-21T08:45:48.124Z,18.30
2023-05-21T08:48:16.948Z,18.20
2023-05-21T08:50:44.158Z,18.10
2023-05-21T08:53:27.267Z,18.30
2023-05-21T08:55:56.225Z,18.40
2023-05-21T08:58:25.026Z,18.50
2023-05-21T09:00:52.974Z,18.40
2023-05-21T09:03:22.322Z,18.60
2023-05-21T09:05:49.227Z,18.80
2023-05-21T09:08:15.968Z,18.80
2023-05-21T09:10:51.404Z,18.60
2023-05-21T09:13:20.820Z,18.80
2023-05-21T09:15:49.164Z,19.00
2023-05-21T09:18:17.446Z,19.00
2023-05-21T09:21:04.341Z,18.60
2023-05-21T09:23:31.229Z,19.00
2023-05-21T09:25:57.909Z,19.10
2023-05-21T09:28:31.197Z,19.10
2023-05-21T09:30:57.869Z,19.30
2023-05-21T09:33:24.537Z,19.50
2023-05-21T09:35:51.500Z,19.70
2023-05-21T09:38:18.853Z,19.50
2023-05-21T09:40:46.611Z,19.40
2023-05-21T09:43:13.357Z,19.30
2023-05-21T09:45:40.138Z,19.50
2023-05-21T09:48:06.837Z,19.30
2023-05-21T09:50:33.585Z,18.90
2023-05-21T09:53:00.202Z,19.00
2023-05-21T09:55:27.035Z,19.10
2023-05-21T09:57:53.694Z,19.30
2023-05-21T10:00:21.320Z,19.30
2023-05-21T10:02:48.171Z,19.50
2023-05-21T10:05:15.018Z,20.00
2023-05-21T10:07:42.772Z,20.10
2023-05-21T10:10:09.475Z,20.00
2023-05-21T10:12:36.107Z,19.90
2023-05-21T10:15:02.751Z,19.60
2023-05-21T10:17:29.486Z,19.40
2023-05-21T10:19:56.303Z,19.40
2023-05-21T10:22:22.921Z,19.40
2023-05-21T10:24:49.580Z,19.50
2023-05-21T10:27:16.541Z,19.40
2023-05-21T10:29:43.265Z,19.30
2023-05-21T10:32:09.938Z,19.50
2023-05-21T10:34:36.597Z,19.70
2023-05-21T10:37:06.418Z,19.90
2023-05-21T10:39:33.193Z,20.00
2023-05-21T10:41:59.839Z,20.00
2023-05-21T10:44:26.520Z,19.70
2023-05-21T10:46:53.316Z,19.50
2023-05-21T10:49:22.617Z,19.40
2023-05-21T10:51:49.261Z,19.10
2023-05-21T10:54:16.020Z,19.20
2023-05-21T10:56:44.914Z,19.30
2023-05-21T10:59:12.524Z,19.30
2023-05-21T11:01:39.376Z,19.30
2023-05-21T11:04:06.381Z,19.30
2023-05-21T11:06:53.122Z,19.40
2023-05-21T11:09:20.177Z,19.90
2023-05-21T11:11:48.885Z,20.40
2023-05-21T11:14:15.586Z,20.30
2023-05-21T11:16:42.237Z,19.80
2023-05-21T11:19:08.992Z,20.00
2023-05-21T11:21:35.845Z,20.30
2023-05-21T11:24:02.721Z,20.60
2023-05-21T11:26:29.450Z,20.70
2023-05-21T11:28:56.161Z,20.60
2023-05-21T11:31:22.906Z,20.30
2023-05-21T11:33:49.563Z,20.70
2023-05-21T11:36:16.211Z,20.80
2023-05-21T11:38:42.849Z,21.40
2023-05-21T11:41:09.557Z,21.80
2023-05-21T11:43:36.217Z,21.80
2023-05-21T11:46:02.912Z,21.00
2023-05-21T11:48:31.872Z,20.60
2023-05-21T11:50:59.214Z,20.70
2023-05-21T11:53:25.901Z,20.70
2023-05-21T11:55:57.215Z,20.30
2023-05-21T11:58:23.882Z,20.10
2023-05-21T12:00:50.520Z,20.00
2023-05-21T12:03:18.140Z,20.20
2023-05-21T12:05:44.943Z,20.40
2023-05-21T12:08:11.620Z,20.60
2023-05-21T12:10:39.639Z,20.60
2023-05-21T12:13:06.877Z,20.50
2023-05-21T12:15:33.522Z,20.30
2023-05-21T12:18:01.256Z,20.20
2023-05-21T12:20:28.604Z,20.40
2023-05-21T12:22:55.558Z,20.60
2023-05-21T12:25:22.297Z,20.70
2023-05-21T12:27:50.915Z,20.90
2023-05-21T12:30:17.612Z,21.10
2023-05-21T12:32:44.424Z,21.20
2023-05-21T12:35:11.758Z,21.10
2023-05-21T12:37:38.529Z,21.10
2023-05-21T12:40:05.215Z,21.10
2023-05-21T12:42:34.770Z,20.90
2023-05-21T12:45:01.704Z,20.80
2023-05-21T12:47:28.385Z,21.00
2023-05-21T12:49:55.903Z,21.20
2023-05-21T12:52:23.143Z,21.20
2023-05-21T12:54:50.491Z,21.20
2023-05-21T12:57:20.890Z,21.20
2023-05-21T12:59:47.738Z,21.30
2023-05-21T13:02:14.350Z,21.30
2023-05-21T13:04:41.046Z,21.20
2023-05-21T13:07:07.722Z,21.20
2023-05-21T13:09:34.358Z,20.90
2023-05-21T13:12:00.994Z,20.90
2023-05-21T13:14:27.711Z,20.90
2023-05-21T13:16:54.380Z,20.90
2023-05-21T13:19:21.148Z,20.90
2023-05-21T13:21:47.860Z,20.80
2023-05-21T13:24:14.473Z,20.70
2023-05-21T13:26:41.429Z,20.80
2023-05-21T13:29:08.428Z,20.80
2023-05-21T13:31:35.107Z,20.80
2023-05-21T13:34:02.090Z,20.60
2023-05-21T13:36:29.878Z,20.10
2023-05-21T13:38:56.520Z,20.10
2023-05-21T13:41:23.359Z,20.10
2023-05-21T13:43:50.015Z,20.00
2023-05-21T13:46:16.668Z,19.90
2023-05-21T13:48:43.538Z,19.90
2023-05-21T13:51:10.173Z,19.80
2023-05-21T13:53:36.812Z,19.80
2023-05-21T13:56:03.650Z,19.80
2023-05-21T13:58:34.467Z,19.90
2023-05-21T14:01:01.179Z,19.80
2023-05-21T14:03:27.835Z,19.80
2023-05-21T14:05:54.505Z,19.90
2023-05-21T14:08:21.284Z,20.10
2023-05-21T14:10:48.051Z,19.90
2023-05-21T14:13:19.763Z,19.90
2023-05-21T14:15:46.972Z,19.90
2023-05-21T14:18:13.629Z,19.90
2023-05-21T14:20:40.321Z,19.80
2023-05-21T14:23:07.015Z,20.00
2023-05-21T14:25:33.830Z,20.20
2023-05-21T14:28:01.102Z,20.30
2023-05-21T14:30:27.748Z,20.30
2023-05-21T14:32:56.027Z,20.40
2023-05-21T14:35:24.499Z,20.40
2023-05-21T14:37:51.234Z,20.30
2023-05-21T14:40:17.967Z,20.20
2023-05-21T14:42:44.601Z,20.20
2023-05-21T14:47:47.490Z,20.30
2023-05-21T14:50:14.327Z,20.20
2023-05-21T14:52:42.661Z,20.10
2023-05-21T14:55:09.336Z,20.00
2023-05-21T14:57:36.983Z,19.60
2023-05-21T15:00:03.661Z,19.70
2023-05-21T15:02:30.579Z,19.60
2023-05-21T15:04:57.335Z,19.70
2023-05-21T15:07:24.002Z,19.80
2023-05-21T15:09:50.625Z,20.00
2023-05-21T15:12:17.225Z,19.90
2023-05-21T15:14:43.981Z,19.70
2023-05-21T15:17:10.636Z,19.70
2023-05-21T15:19:37.334Z,19.70
2023-05-21T15:22:03.972Z,19.60
2023-05-21T15:24:30.607Z,19.50
2023-05-21T15:26:57.248Z,19.30
2023-05-21T15:29:23.887Z,19.30
2023-05-21T15:31:50.618Z,19.50
2023-05-21T15:34:18.042Z,19.40
2023-05-21T15:36:44.781Z,19.60
2023-05-21T15:39:11.443Z,19.80
2023-05-21T15:41:38.320Z,20.00
2023-05-21T15:44:04.964Z,20.20
2023-05-21T15:46:31.897Z,20.20
2023-05-21T15:48:58.641Z,19.90
2023-05-21T15:51:25.420Z,19.80
2023-05-21T15:53:52.428Z,20.00
2023-05-21T15:56:19.058Z,20.00
2023-05-21T15:58:45.800Z,20.00
2023-05-21T16:01:12.477Z,19.70
2023-05-21T16:03:39.850Z,19.60
2023-05-21T16:06:08.004Z,19.60
2023-05-21T16:08:34.784Z,19.80
2023-05-21T16:11:01.451Z,19.60
2023-05-21T16:13:28.120Z,19.60
2023-05-21T16:15:54.776Z,19.60
2023-05-21T16:18:21.432Z,19.50
2023-05-21T16:20:48.314Z,19.60
2023-05-21T16:23:15.041Z,19.50
2023-05-21T16:25:41.743Z,19.50
2023-05-21T16:28:08.447Z,19.50
2023-05-21T16:30:35.146Z,19.30
2023-05-21T16:33:01.909Z,19.10
2023-05-21T16:35:28.724Z,18.90
2023-05-21T16:37:55.377Z,18.90
2023-05-21T16:40:21.966Z,18.90
2023-05-21T16:42:48.668Z,18.80
2023-05-21T16:45:20.587Z,18.80
2023-05-21T16:47:47.337Z,18.80
2023-05-21T16:50:14.006Z,18.80
2023-05-21T16:52:40.660Z,18.90
2023-05-21T16:55:07.285Z,18.70
2023-05-21T16:57:33.950Z,18.60
2023-05-21T17:00:01.893Z,18.50
2023-05-21T17:02:28.675Z,18.40
2023-05-21T17:04:55.401Z,18.30
2023-05-21T17:07:22.068Z,18.20
2023-05-21T17:09:48.701Z,18.20
2023-05-21T17:12:15.425Z,18.20
2023-05-21T17:14:42.112Z,18.20
2023-05-21T17:17:08.878Z,18.30
2023-05-21T17:19:35.619Z,18.30
2023-05-21T17:22:02.359Z,18.30
2023-05-21T17:24:28.976Z,18.20
2023-05-21T17:26:55.705Z,18.10
2023-05-21T17:29:22.364Z,18.10
2023-05-21T17:31:49.082Z,18.20
2023-05-21T17:34:16.591Z,18.20
2023-05-21T17:36:44.354Z,18.20
2023-05-21T17:39:10.952Z,18.10
2023-05-21T17:41:37.644Z,18.00
2023-05-21T17:44:04.314Z,18.00
2023-05-21T17:46:31.000Z,17.90
2023-05-21T17:48:57.690Z,17.80
2023-05-21T17:51:24.308Z,17.80
2023-05-21T17:53:50.950Z,17.80
2023-05-21T17:56:17.648Z,17.60
2023-05-21T17:58:44.453Z,17.50
2023-05-21T18:01:11.148Z,17.50
2023-05-21T18:03:37.969Z,17.40
2023-05-21T18:08:31.339Z,17.30
2023-05-21T18:11:02.185Z,17.40
2023-05-21T18:13:30.005Z,17.40
2023-05-21T18:15:57.047Z,17.30
2023-05-21T18:18:23.868Z,17.30
2023-05-21T18:20:50.608Z,17.20
2023-05-21T18:23:17.260Z,17.30
2023-05-21T18:25:43.897Z,17.20
2023-05-21T18:28:10.652Z,17.20
2023-05-21T18:30:37.524Z,17.20
2023-05-21T18:33:04.471Z,17.20
2023-05-21T18:35:31.515Z,17.20
2023-05-21T18:37:58.332Z,17.10
2023-05-21T18:40:28.505Z,17.20
2023-05-21T18:42:57.359Z,17.20
2023-05-21T18:45:23.996Z,17.10
2023-05-21T18:47:50.799Z,17.00
2023-05-21T18:50:19.104Z,17.00
2023-05-21T18:52:46.526Z,16.90
2023-05-21T18:55:13.211Z,16.90
2023-05-21T18:57:40.881Z,16.90
2023-05-21T19:00:08.300Z,16.80
2023-05-21T19:02:35.110Z,16.80
2023-05-21T19:05:02.795Z,16.70
2023-05-21T19:07:29.554Z,16.80
2023-05-21T19:09:56.280Z,16.80
2023-05-21T19:12:22.924Z,16.80
2023-05-21T19:14:49.567Z,16.80
2023-05-21T19:17:16.317Z,16.80
2023-05-21T19:19:43.124Z,16.80
2023-05-21T19:22:09.790Z,16.80
2023-05-21T19:24:36.473Z,16.70
2023-05-21T19:27:03.239Z,16.60
2023-05-21T19:29:30.001Z,16.50
2023-05-21T19:31:57.362Z,16.50
2023-05-21T19:34:24.209Z,16.40
2023-05-21T19:36:53.759Z,16.30
2023-05-21T19:39:20.674Z,16.20
2023-05-21T19:41:47.397Z,16.10
2023-05-21T19:44:14.183Z,16.00
2023-05-21T19:46:40.911Z,15.90
2023-05-21T19:49:10.425Z,15.70
2023-05-21T19:51:37.069Z,15.70
2023-05-21T19:54:03.736Z,15.60
2023-05-21T19:56:30.505Z,15.50
2023-05-21T19:58:57.182Z,15.40
2023-05-21T20:01:24.029Z,15.30
2023-05-21T20:03:50.871Z,15.20
2023-05-21T20:06:19.030Z,15.20
2023-05-21T20:08:46.103Z,15.20
2023-05-21T20:11:12.863Z,15.10
2023-05-21T20:13:39.524Z,15.00
2023-05-21T20:16:06.195Z,14.90
2023-05-21T20:18:32.837Z,14.90
2023-05-21T20:21:00.305Z,14.80
2023-05-21T20:23:26.942Z,14.80
2023-05-21T20:25:53.893Z,14.70
2023-05-21T20:28:23.045Z,14.70
2023-05-21T20:30:49.980Z,14.60
2023-05-21T20:33:16.674Z,14.50
2023-05-21T20:35:43.354Z,14.50
2023-05-21T20:38:10.214Z,14.40
2023-05-21T20:40:37.245Z,14.40
2023-05-21T20:43:04.082Z,14.40
2023-05-21T20:45:30.887Z,14.30
2023-05-21T20:47:57.743Z,14.30
2023-05-21T20:50:26.057Z,14.30
2023-05-21T20:52:52.893Z,14.30
2023-05-21T20:55:20.817Z,14.40
2023-05-21T20:57:47.560Z,14.40
2023-05-21T21:00:16.010Z,14.40
2023-05-21T21:02:42.870Z,14.50
2023-05-21T21:05:10.626Z,14.50
2023-05-21T21:07:37.454Z,14.60
2023-05-21T21:10:04.095Z,14.60
2023-05-21T21:12:31.134Z,14.60
2023-05-21T21:14:57.776Z,14.60
2023-05-21T21:17:24.495Z,14.60
2023-05-21T21:19:51.265Z,14.60
2023-05-21T21:22:18.581Z,14.60
2023-05-21T21:24:45.799Z,14.60
2023-05-21T21:27:14.106Z,14.50
2023-05-21T21:29:40.850Z,14.60
2023-05-21T21:32:07.546Z,14.60
2023-05-21T21:34:34.171Z,14.50
2023-05-21T21:37:00.886Z,14.50
2023-05-21T21:39:27.587Z,14.50
2023-05-21T21:41:54.280Z,14.40
2023-05-21T21:44:20.924Z,14.40
2023-05-21T21:46:47.631Z,14.40
2023-05-21T21:49:16.544Z,14.30
2023-05-21T21:51:44.481Z,14.30
2023-05-21T21:54:11.156Z,14.20
2023-05-21T21:56:37.871Z,14.20
2023-05-21T21:59:04.535Z,14.10
2023-05-21T22:01:31.320Z,14.10
2023-05-21T22:03:58.036Z,14.00
2023-05-21T22:06:24.732Z,14.00
2023-05-21T22:08:51.434Z,14.00
2023-05-21T22:11:18.108Z,14.00
2023-05-21T22:13:45.298Z,14.00
2023-05-21T22:16:12.874Z,13.80
2023-05-21T22:18:41.962Z,13.80
2023-05-21T22:21:09.716Z,13.70
2023-05-21T22:23:36.566Z,13.60
2023-05-21T22:26:03.505Z,13.60
2023-05-21T22:28:30.197Z,13.60
2023-05-21T22:30:57.247Z,13.50
2023-05-21T22:33:24.380Z,13.40
2023-05-21T22:35:51.193Z,13.40
2023-05-21T22:38:17.963Z,13.30
2023-05-21T22:40:44.705Z,13.30
2023-05-21T22:43:11.389Z,13.20
2023-05-21T22:45:38.493Z,13.20
2023-05-21T22:48:07.262Z,13.10
2023-05-21T22:50:34.133Z,13.10
2023-05-21T22:53:00.745Z,13.00
2023-05-21T22:55:27.643Z,13.00
2023-05-21T22:57:54.327Z,12.90
2023-05-21T23:00:21.121Z,12.90
2023-05-21T23:02:47.880Z,12.80
2023-05-21T23:05:14.647Z,12.80
2023-05-21T23:07:41.919Z,12.80
2023-05-21T23:10:08.576Z,12.70
2023-05-21T23:12:35.394Z,12.70
2023-05-21T23:15:02.021Z,12.70
2023-05-21T23:17:28.670Z,12.70
2023-05-21T23:19:56.153Z,12.70
2023-05-21T23:22:22.797Z,12.60
2023-05-21T23:24:49.518Z,12.60
2023-05-21T23:27:16.129Z,12.60
2023-05-21T23:29:42.786Z,12.50
2023-05-21T23:32:09.530Z,12.50
2023-05-21T23:34:36.319Z,12.40
2023-05-21T23:37:03.119Z,12.40
2023-05-21T23:39:29.860Z,12.30
2023-05-21T23:41:56.469Z,12.30
2023-05-21T23:44:23.226Z,12.20
2023-05-21T23:46:50.027Z,12.20
2023-05-21T23:49:16.738Z,12.20
2023-05-21T23:51:43.401Z,12.10
2023-05-21T23:54:10.189Z,12.10
2023-05-21T23:56:36.836Z,12.10
2023-05-21T23:59:03.507Z,12.10
